createdAt,value
2023-05-02T00:00:37.545Z,99222.9
2023-05-02T00:01:42.803Z,99226.84
2023-05-02T00:02:48.319Z,99222.9
2023-05-02T00:03:54.337Z,99220.42
2023-05-02T00:04:59.961Z,99217.86
2023-05-02T00:06:05.246Z,99219.69
2023-05-02T00:07:10.614Z,99219.69
2023-05-02T00:08:15.840Z,99224.65
2023-05-02T00:09:21.025Z,99220.62
2023-05-02T00:10:26.218Z,99216.31
2023-05-02T00:11:31.402Z,99223.3
2023-05-02T00:12:36.618Z,99224.44
2023-05-02T00:13:41.841Z,99220.73
2023-05-02T00:14:47.059Z,99218.66
2023-05-02T00:15:52.281Z,99220.41
2023-05-02T00:16:57.744Z,99217.44
2023-05-02T00:18:03.212Z,99217.64
2023-05-02T00:19:08.539Z,99219.71
2023-05-02T00:20:13.750Z,99222.16
2023-05-02T00:21:18.985Z,99224.03
2023-05-02T00:22:24.201Z,99223.73
2023-05-02T00:23:29.406Z,99231.99
2023-05-02T00:24:34.580Z,99221.55
2023-05-02T00:25:39.762Z,99225.08
2023-05-02T00:26:45.003Z,99228.36
2023-05-02T00:27:50.332Z,99225.27
2023-05-02T00:28:55.629Z,99222.23
2023-05-02T00:30:01.362Z,99226.83
2023-05-02T00:31:07.271Z,99234.02
2023-05-02T00:32:12.592Z,99225.08
2023-05-02T00:33:17.788Z,99226.7
2023-05-02T00:34:22.997Z,99232.14
2023-05-02T00:35:28.203Z,99224.34
2023-05-02T00:36:33.435Z,99234.55
2023-05-02T00:37:38.635Z,99239.09
2023-05-02T00:38:43.844Z,99238.84
2023-05-02T00:39:49.042Z,99240.02
2023-05-02T00:40:54.216Z,99242.7
2023-05-02T00:41:59.564Z,99242.88
2023-05-02T00:43:04.786Z,99230.72
2023-05-02T00:44:09.967Z,99237.83
2023-05-02T00:45:15.282Z,99236.08
2023-05-02T00:46:20.676Z,99235.34
2023-05-02T00:47:25.985Z,99240.52
2023-05-02T00:48:31.225Z,99238.52
2023-05-02T00:49:36.452Z,99231.41
2023-05-02T00:50:41.678Z,99231.52
2023-05-02T00:51:47.146Z,99232.96
2023-05-02T00:52:52.328Z,99230.39
2023-05-02T00:53:57.499Z,99225.55
2023-05-02T00:55:02.703Z,99235.75
2023-05-02T00:56:07.924Z,99234.28
2023-05-02T00:57:13.106Z,99238.03
2023-05-02T00:58:18.317Z,99235.02
2023-05-02T00:59:23.527Z,99232.95
2023-05-02T01:00:29.754Z,99235.84
2023-05-02T01:01:35.053Z,99233.27
2023-05-02T01:02:40.529Z,99241.2
2023-05-02T01:03:46.160Z,99234.09
2023-05-02T01:04:51.611Z,99236.48
2023-05-02T01:05:56.846Z,99240.09
2023-05-02T01:07:02.195Z,99243.18
2023-05-02T01:08:07.422Z,99240.38
2023-05-02T01:09:12.617Z,99238.54
2023-05-02T01:10:17.797Z,99238.42
2023-05-02T01:11:22.978Z,99238.09
2023-05-02T01:12:28.220Z,99241.22
2023-05-02T01:13:33.393Z,99243.58
2023-05-02T01:14:38.579Z,99243.05
2023-05-02T01:15:43.832Z,99244.31
2023-05-02T01:16:49.113Z,99240.37
2023-05-02T01:17:54.381Z,99238.95
2023-05-02T01:18:59.597Z,99231.91
2023-05-02T01:20:05.068Z,99239.44
2023-05-02T01:21:10.270Z,99237.2
2023-05-02T01:22:15.454Z,99230.36
2023-05-02T01:23:20.640Z,99239.55
2023-05-02T01:24:25.852Z,99239.25
2023-05-02T01:25:31.088Z,99234.7
2023-05-02T01:26:36.324Z,99239.66
2023-05-02T01:27:41.544Z,99230.88
2023-05-02T01:28:46.760Z,99235.23
2023-05-02T01:29:52.011Z,99225.84
2023-05-02T01:30:57.213Z,99226.34
2023-05-02T01:32:02.661Z,99232.95
2023-05-02T01:33:08.109Z,99230.36
2023-05-02T01:34:13.475Z,99230.47
2023-05-02T01:35:18.718Z,99224.78
2023-05-02T01:36:23.911Z,99224.9
2023-05-02T01:37:29.112Z,99226.04
2023-05-02T01:38:34.291Z,99226.45
2023-05-02T01:39:39.500Z,99227.88
2023-05-02T01:40:44.694Z,99202.89
2023-05-02T01:41:49.938Z,99227.38
2023-05-02T01:42:55.173Z,99224.98
2023-05-02T01:44:00.378Z,99225.83
2023-05-02T01:45:05.582Z,99218.8
2023-05-02T01:46:10.782Z,99226.13
2023-05-02T01:47:16.132Z,99220.88
2023-05-02T01:48:21.609Z,99225.83
2023-05-02T01:49:26.922Z,99229.33
2023-05-02T01:50:32.130Z,99230.27
2023-05-02T01:51:37.305Z,99226.84
2023-05-02T01:52:42.524Z,99231.69
2023-05-02T01:53:47.701Z,99230.45
2023-05-02T01:54:52.879Z,99223.23
2023-05-02T01:55:58.088Z,99227.58
2023-05-02T01:57:03.291Z,99233.33
2023-05-02T01:58:08.488Z,99234.48
2023-05-02T01:59:13.677Z,99234.48
2023-05-02T02:00:18.883Z,99235.49
2023-05-02T02:01:24.111Z,99230.86
2023-05-02T02:02:29.418Z,99239.44
2023-05-02T02:03:34.709Z,99234.59
2023-05-02T02:04:40.068Z,99231.06
2023-05-02T02:05:45.665Z,99237.69
2023-05-02T02:06:51.168Z,99234.27
2023-05-02T02:07:56.659Z,99232.41
2023-05-02T02:09:01.853Z,99240.86
2023-05-02T02:10:07.091Z,99232.71
2023-05-02T02:11:12.271Z,99236.54
2023-05-02T02:12:17.465Z,99237.14
2023-05-02T02:13:22.719Z,99236.33
2023-05-02T02:14:27.964Z,99236.54
2023-05-02T02:15:33.173Z,99235.72
2023-05-02T02:16:38.505Z,99237.06
2023-05-02T02:17:43.889Z,99237.06
2023-05-02T02:18:49.215Z,99230.14
2023-05-02T02:19:54.387Z,99225.71
2023-05-02T02:20:59.639Z,99230.44
2023-05-02T02:22:04.838Z,99234.77
2023-05-02T02:23:10.101Z,99236.73
2023-05-02T02:24:15.319Z,99232.71
2023-05-02T02:25:20.520Z,99238.27
2023-05-02T02:26:25.741Z,99242.3
2023-05-02T02:27:30.971Z,99244.27
2023-05-02T02:28:36.178Z,99240.73
2023-05-02T02:29:41.373Z,99247.16
2023-05-02T02:30:46.626Z,99241.48
2023-05-02T02:31:51.937Z,99235.7
2023-05-02T02:32:57.254Z,99232.7
2023-05-02T02:34:02.533Z,99235.18
2023-05-02T02:35:07.764Z,99240.13
2023-05-02T02:36:12.951Z,99244.16
2023-05-02T02:37:18.221Z,99241.27
2023-05-02T02:38:23.513Z,99244.77
2023-05-02T02:39:28.720Z,99236.01
2023-05-02T02:40:33.902Z,99236.83
2023-05-02T02:41:39.071Z,99234.88
2023-05-02T02:42:44.257Z,99241.78
2023-05-02T02:43:49.508Z,99245.8
2023-05-02T02:44:54.728Z,99238.36
2023-05-02T02:46:00.124Z,99240.52
2023-05-02T02:47:05.419Z,99242.08
2023-05-02T02:48:10.705Z,99239.19
2023-05-02T02:49:16.055Z,99240.33
2023-05-02T02:50:21.303Z,99244.05
2023-05-02T02:51:26.524Z,99241.57
2023-05-02T02:52:31.710Z,99249.5
2023-05-02T02:53:36.879Z,99252.18
2023-05-02T02:54:42.151Z,99252.81
2023-05-02T02:55:47.345Z,99248.88
2023-05-02T02:56:52.547Z,99257.33
2023-05-02T02:57:57.735Z,99259.81
2023-05-02T02:59:02.951Z,99260.34
2023-05-02T03:00:08.201Z,99260.86
2023-05-02T03:01:13.443Z,99262.5
2023-05-02T03:02:18.803Z,99261.05
2023-05-02T03:03:24.208Z,99263.43
2023-05-02T03:04:29.621Z,99262.69
2023-05-02T03:05:34.836Z,99258.38
2023-05-02T03:06:40.106Z,99257.53
2023-05-02T03:07:45.425Z,99252.9
2023-05-02T03:08:50.694Z,99257.11
2023-05-02T03:09:55.884Z,99252.69
2023-05-02T03:11:01.398Z,99254.65
2023-05-02T03:12:06.565Z,99253.73
2023-05-02T03:13:11.752Z,99256.1
2023-05-02T03:14:16.931Z,99259.91
2023-05-02T03:15:22.130Z,99261.55
2023-05-02T03:16:27.493Z,99266.42
2023-05-02T03:17:33.019Z,99266.83
2023-05-02T03:18:38.266Z,99261.45
2023-05-02T03:19:43.459Z,99264.34
2023-05-02T03:20:48.668Z,99264.34
2023-05-02T03:21:53.964Z,99266.09
2023-05-02T03:22:59.229Z,99273.61
2023-05-02T03:24:04.472Z,99269.9
2023-05-02T03:25:09.697Z,99273.31
2023-05-02T03:26:14.912Z,99263.6
2023-05-02T03:27:20.109Z,99264.65
2023-05-02T03:28:25.301Z,99270.63
2023-05-02T03:29:30.553Z,99267.55
2023-05-02T03:30:35.760Z,99271.56
2023-05-02T03:31:41.173Z,99268.06
2023-05-02T03:32:46.591Z,99265.38
2023-05-02T03:33:52.615Z,99266.28
2023-05-02T03:34:58.281Z,99267.73
2023-05-02T03:36:03.501Z,99271.65
2023-05-02T03:37:08.755Z,99263.83
2023-05-02T03:38:13.958Z,99268.27
2023-05-02T03:39:19.141Z,99268.15
2023-05-02T03:40:24.356Z,99277.53
2023-05-02T03:41:29.540Z,99275.68
2023-05-02T03:42:34.712Z,99273.1
2023-05-02T03:43:39.932Z,99274.11
2023-05-02T03:44:45.114Z,99278.14
2023-05-02T03:45:50.308Z,99277.64
2023-05-02T03:46:55.639Z,99266.7
2023-05-02T03:48:01.079Z,99274.55
2023-05-02T03:49:06.360Z,99266.3
2023-05-02T03:50:11.530Z,99274.11
2023-05-02T03:51:16.733Z,99269.05
2023-05-02T03:52:21.902Z,99270.09
2023-05-02T03:53:27.086Z,99268.13
2023-05-02T03:54:32.280Z,99266.9
2023-05-02T03:55:37.431Z,99268.98
2023-05-02T03:56:44.253Z,99271.95
2023-05-02T03:57:49.569Z,99266.59
2023-05-02T03:58:54.851Z,99265.03
2023-05-02T04:00:00.723Z,99265.77
2023-05-02T04:01:06.497Z,99267.2
2023-05-02T04:02:11.735Z,99264.02
2023-05-02T04:03:17.157Z,99257.59
2023-05-02T04:04:22.509Z,99265.36
2023-05-02T04:05:27.856Z,99255.84
2023-05-02T04:06:33.177Z,99259.59
2023-05-02T04:07:38.500Z,99263.17
2023-05-02T04:08:43.704Z,99263.4
2023-05-02T04:09:48.936Z,99256.47
2023-05-02T04:10:54.179Z,99260.2
2023-05-02T04:11:59.419Z,99261.42
2023-05-02T04:13:04.629Z,99259.27
2023-05-02T04:14:09.887Z,99257.92
2023-05-02T04:15:15.105Z,99261.95
2023-05-02T04:16:20.428Z,99258.53
2023-05-02T04:17:25.788Z,99261.54
2023-05-02T04:18:31.115Z,99257.7
2023-05-02T04:19:36.342Z,99257.92
2023-05-02T04:20:41.560Z,99260.61
2023-05-02T04:21:46.763Z,99260.61
2023-05-02T04:22:52.078Z,99257.19
2023-05-02T04:23:57.310Z,99252.95
2023-05-02T04:25:02.548Z,99256.78
2023-05-02T04:26:07.756Z,99260.72
2023-05-02T04:27:16.328Z,99251.94
2023-05-02T04:28:21.507Z,99254.91
2023-05-02T04:29:26.729Z,99255.03
2023-05-02T04:30:32.016Z,99253.28
2023-05-02T04:31:37.401Z,99254.51
2023-05-02T04:32:42.711Z,99253.39
2023-05-02T04:33:47.946Z,99253.69
2023-05-02T04:34:53.159Z,99256.78
2023-05-02T04:35:58.430Z,99256.37
2023-05-02T04:37:03.670Z,99252.88
2023-05-02T04:38:08.916Z,99255.03
2023-05-02T04:39:14.113Z,99252.76
2023-05-02T04:40:19.356Z,99253.28
2023-05-02T04:41:24.599Z,99259.16
2023-05-02T04:42:29.785Z,99255.44
2023-05-02T04:43:34.999Z,99257.3
2023-05-02T04:44:40.186Z,99255.41
2023-05-02T04:45:45.508Z,99266.69
2023-05-02T04:46:50.926Z,99261.11
2023-05-02T04:47:56.363Z,99256.56
2023-05-02T04:49:01.634Z,99267.2
2023-05-02T04:50:06.823Z,99256.56
2023-05-02T04:51:12.332Z,99256.97
2023-05-02T04:52:20.810Z,99253.66
2023-05-02T04:53:26.002Z,99253.8
2023-05-02T04:54:31.217Z,99251.72
2023-05-02T04:55:36.426Z,99251.31
2023-05-02T04:56:41.614Z,99257.49
2023-05-02T04:57:46.849Z,99254.41
2023-05-02T04:58:52.064Z,99259.24
2023-05-02T04:59:57.379Z,99249.78
2023-05-02T05:01:03.045Z,99249.64
2023-05-02T05:02:08.658Z,99251.83
2023-05-02T05:03:14.202Z,99250.17
2023-05-02T05:04:19.703Z,99253.78
2023-05-02T05:05:25.121Z,99261.63
2023-05-02T05:06:30.481Z,99257.8
2023-05-02T05:07:35.864Z,99258.95
2023-05-02T05:08:41.103Z,99262.56
2023-05-02T05:09:46.353Z,99259.03
2023-05-02T05:10:51.587Z,99261.63
2023-05-02T05:11:56.834Z,99258.73
2023-05-02T05:13:02.079Z,99256.76
2023-05-02T05:14:07.323Z,99265.23
2023-05-02T05:15:12.564Z,99264.39
2023-05-02T05:16:17.806Z,99262.56
2023-05-02T05:17:23.090Z,99249.21
2023-05-02T05:18:28.350Z,99261.41
2023-05-02T05:19:33.546Z,99259.44
2023-05-02T05:20:38.787Z,99256.13
2023-05-02T05:21:44.029Z,99260.48
2023-05-02T05:22:49.267Z,99257.28
2023-05-02T05:23:54.467Z,99261.7
2023-05-02T05:24:59.655Z,99255.09
2023-05-02T05:26:04.848Z,99259.22
2023-05-02T05:27:10.069Z,99252.63
2023-05-02T05:28:15.297Z,99260.37
2023-05-02T05:29:20.481Z,99256.98
2023-05-02T05:30:25.677Z,99258.32
2023-05-02T05:31:30.960Z,99254.19
2023-05-02T05:32:36.373Z,99257.88
2023-05-02T05:33:41.855Z,99258.41
2023-05-02T05:34:47.187Z,99255.2
2023-05-02T05:35:52.417Z,99262.64
2023-05-02T05:36:57.629Z,99259.66
2023-05-02T05:38:02.826Z,99252.11
2023-05-02T05:39:08.009Z,99262.34
2023-05-02T05:40:13.198Z,99259.86
2023-05-02T05:41:18.428Z,99258.52
2023-05-02T05:42:23.627Z,99259.74
2023-05-02T05:43:28.819Z,99260.67
2023-05-02T05:44:34.014Z,99255.09
2023-05-02T05:45:39.205Z,99259.45
2023-05-02T05:46:44.438Z,99262.02
2023-05-02T05:47:49.859Z,99253.67
2023-05-02T05:48:55.206Z,99256.03
2023-05-02T05:50:01.084Z,99260.56
2023-05-02T05:51:06.947Z,99265.22
2023-05-02T05:52:12.163Z,99263.88
2023-05-02T05:53:17.442Z,99261.06
2023-05-02T05:54:22.646Z,99270.77
2023-05-02T05:55:27.840Z,99265.22
2023-05-02T05:56:33.070Z,99269.55
2023-05-02T05:57:38.266Z,99270.88
2023-05-02T05:58:43.483Z,99272.72
2023-05-02T05:59:48.742Z,99273.67
2023-05-02T06:00:53.991Z,99272.93
2023-05-02T06:01:59.174Z,99262.8
2023-05-02T06:03:06.052Z,99278.21
2023-05-02T06:04:14.149Z,99278.92
2023-05-02T06:05:19.736Z,99276.46
2023-05-02T06:06:25.026Z,99267.08
2023-05-02T06:07:30.308Z,99267.16
2023-05-02T06:08:35.580Z,99272
2023-05-02T06:09:40.796Z,99271.59
2023-05-02T06:10:46.050Z,99276.46
2023-05-02T06:11:51.219Z,99274.27
2023-05-02T06:12:56.452Z,99273.34
2023-05-02T06:14:01.674Z,99266.02
2023-05-02T06:15:06.901Z,99269.31
2023-05-02T06:16:12.211Z,99274.38
2023-05-02T06:17:17.520Z,99272.93
2023-05-02T06:18:22.698Z,99273.98
2023-05-02T06:19:27.913Z,99276.13
2023-05-02T06:20:33.145Z,99273.45
2023-05-02T06:21:38.379Z,99274.46
2023-05-02T06:22:43.597Z,99275.39
2023-05-02T06:23:48.798Z,99270.14
2023-05-02T06:24:54.072Z,99274.8
2023-05-02T06:25:59.310Z,99278.81
2023-05-02T06:27:04.554Z,99275.39
2023-05-02T06:28:09.758Z,99275.8
2023-05-02T06:29:15.002Z,99279.34
2023-05-02T06:30:20.257Z,99270.14
2023-05-02T06:31:25.483Z,99275.51
2023-05-02T06:32:30.912Z,99272.83
2023-05-02T06:33:36.336Z,99275.39
2023-05-02T06:34:41.544Z,99268.7
2023-05-02T06:35:46.751Z,99275.8
2023-05-02T06:36:51.948Z,99278.08
2023-05-02T06:37:57.134Z,99277.14
2023-05-02T06:39:02.362Z,99281.09
2023-05-02T06:40:07.603Z,99279.83
2023-05-02T06:41:12.928Z,99280.67
2023-05-02T06:42:21.142Z,99274.69
2023-05-02T06:43:26.355Z,99285.7
2023-05-02T06:44:31.677Z,99285.63
2023-05-02T06:45:36.883Z,99289.65
2023-05-02T06:46:42.165Z,99285.11
2023-05-02T06:47:47.596Z,99281.39
2023-05-02T06:48:52.820Z,99282.09
2023-05-02T06:49:58.262Z,99279.94
2023-05-02T06:51:03.996Z,99288.31
2023-05-02T06:52:09.204Z,99286.97
2023-05-02T06:53:14.483Z,99285.3
2023-05-02T06:54:19.729Z,99282.09
2023-05-02T06:55:24.902Z,99292.41
2023-05-02T06:56:30.102Z,99280.95
2023-05-02T06:57:35.306Z,99286.23
2023-05-02T06:58:40.478Z,99286.42
2023-05-02T06:59:45.695Z,99289.44
2023-05-02T07:00:51.057Z,99287.45
2023-05-02T07:01:56.347Z,99287.57
2023-05-02T07:03:01.728Z,99285.7
2023-05-02T07:04:07.141Z,99285.9
2023-05-02T07:05:12.533Z,99285.6
2023-05-02T07:06:17.903Z,99288.58
2023-05-02T07:07:23.209Z,99289.32
2023-05-02T07:08:28.431Z,99287.16
2023-05-02T07:09:33.680Z,99286.23
2023-05-02T07:10:38.974Z,99287.57
2023-05-02T07:11:44.157Z,99287.65
2023-05-02T07:12:49.675Z,99290.33
2023-05-02T07:13:54.861Z,99288.09
2023-05-02T07:15:00.114Z,99285.2
2023-05-02T07:16:05.392Z,99282.92
2023-05-02T07:17:10.759Z,99289.92
2023-05-02T07:18:16.152Z,99292.11
2023-05-02T07:19:21.398Z,99290.97
2023-05-02T07:20:26.709Z,99296.55
2023-05-02T07:21:31.914Z,99294.68
2023-05-02T07:22:37.129Z,99293.94
2023-05-02T07:23:42.375Z,99297.03
2023-05-02T07:24:47.572Z,99295.28
2023-05-02T07:25:52.773Z,99297.03
2023-05-02T07:26:58.004Z,99285.48
2023-05-02T07:28:03.332Z,99295.69
2023-05-02T07:29:08.580Z,99293.23
2023-05-02T07:30:13.817Z,99296.41
2023-05-02T07:31:20.437Z,99295.69
2023-05-02T07:32:25.818Z,99302.91
2023-05-02T07:33:31.603Z,99301.98
2023-05-02T07:34:36.822Z,99298.89
2023-05-02T07:35:42.030Z,99303.84
2023-05-02T07:36:47.247Z,99299.83
2023-05-02T07:37:52.474Z,99305.7
2023-05-02T07:38:57.716Z,99308.39
2023-05-02T07:40:03.910Z,99300.95
2023-05-02T07:41:09.380Z,99302.29
2023-05-02T07:42:14.618Z,99301.98
2023-05-02T07:43:19.893Z,99301.28
2023-05-02T07:44:25.133Z,99305.57
2023-05-02T07:45:30.303Z,99304.56
2023-05-02T07:46:35.612Z,99301.47
2023-05-02T07:47:40.939Z,99303.44
2023-05-02T07:48:46.226Z,99305.57
2023-05-02T07:49:51.420Z,99305.79
2023-05-02T07:50:56.631Z,99302.17
2023-05-02T07:52:01.814Z,99305.38
2023-05-02T07:53:06.989Z,99299.2
2023-05-02T07:54:12.167Z,99301.98
2023-05-02T07:55:17.356Z,99301.14
2023-05-02T07:56:22.549Z,99302.7
2023-05-02T07:57:28.521Z,99300.2
2023-05-02T07:58:34.197Z,99304.56
2023-05-02T07:59:39.864Z,99307.65
2023-05-02T08:00:45.137Z,99309.4
2023-05-02T08:01:50.373Z,99320.64
2023-05-02T08:02:55.885Z,99310.33
2023-05-02T08:04:01.640Z,99314.76
2023-05-02T08:05:07.626Z,99311.86
2023-05-02T08:06:13.382Z,99318.38
2023-05-02T08:07:18.761Z,99319.82
2023-05-02T08:08:23.944Z,99314.24
2023-05-02T08:09:29.116Z,99320.83
2023-05-02T08:10:34.325Z,99318.48
2023-05-02T08:11:39.510Z,99313.94
2023-05-02T08:12:44.727Z,99322.17
2023-05-02T08:13:49.930Z,99318.48
2023-05-02T08:14:55.130Z,99314.66
2023-05-02T08:16:00.615Z,99311.05
2023-05-02T08:17:05.894Z,99318.97
2023-05-02T08:18:11.286Z,99318.67
2023-05-02T08:19:16.791Z,99310.44
2023-05-02T08:20:22.075Z,99311.86
2023-05-02T08:21:27.874Z,99316.73
2023-05-02T08:22:34.007Z,99313.53
2023-05-02T08:23:39.331Z,99309.59
2023-05-02T08:24:44.541Z,99310.63
2023-05-02T08:25:49.726Z,99312.91
2023-05-02T08:26:55.009Z,99308.96
2023-05-02T08:28:00.232Z,99311.97
2023-05-02T08:29:05.455Z,99316.08
2023-05-02T08:30:10.626Z,99319.69
2023-05-02T08:31:15.981Z,99324.44
2023-05-02T08:32:21.235Z,99326.11
2023-05-02T08:33:26.472Z,99321.77
2023-05-02T08:34:31.668Z,99324.11
2023-05-02T08:35:36.851Z,99327.86
2023-05-02T08:36:42.070Z,99323.7
2023-05-02T08:37:47.282Z,99325.38
2023-05-02T08:38:52.526Z,99333.42
2023-05-02T08:39:57.786Z,99333.72
2023-05-02T08:41:03.476Z,99327.45
2023-05-02T08:42:08.666Z,99321.02
2023-05-02T08:43:13.942Z,99325.19
2023-05-02T08:44:19.155Z,99323.84
2023-05-02T08:45:24.358Z,99324.33
2023-05-02T08:46:29.666Z,99328.27
2023-05-02T08:47:35.147Z,99319.91
2023-05-02T08:48:40.418Z,99316.29
2023-05-02T08:49:45.626Z,99322.5
2023-05-02T08:50:50.856Z,99320.75
2023-05-02T08:51:56.047Z,99322.58
2023-05-02T08:53:01.242Z,99320.02
2023-05-02T08:54:06.472Z,99325.27
2023-05-02T08:55:11.932Z,99318.97
2023-05-02T08:56:17.217Z,99317.86
2023-05-02T08:57:22.421Z,99323.3
2023-05-02T08:58:27.825Z,99324.85
2023-05-02T08:59:33.009Z,99328.88
2023-05-02T09:00:38.215Z,99328.35
2023-05-02T09:01:43.548Z,99329.69
2023-05-02T09:02:49.028Z,99328.14
2023-05-02T09:03:54.415Z,99330.22
2023-05-02T09:05:00.526Z,99332.38
2023-05-02T09:06:06.598Z,99335.05
2023-05-02T09:07:12.322Z,99329.69
2023-05-02T09:08:17.536Z,99331.55
2023-05-02T09:09:22.760Z,99325.97
2023-05-02T09:10:27.979Z,99328.88
2023-05-02T09:11:33.195Z,99330.63
2023-05-02T09:12:38.370Z,99338.15
2023-05-02T09:13:43.556Z,99334.34
2023-05-02T09:14:48.742Z,99332.48
2023-05-02T09:15:54.152Z,99337.02
2023-05-02T09:16:59.769Z,99341.12
2023-05-02T09:18:07.345Z,99337.44
2023-05-02T09:19:12.621Z,99339.3
2023-05-02T09:20:17.822Z,99346.3
2023-05-02T09:21:23.229Z,99340.72
2023-05-02T09:22:28.410Z,99342.39
2023-05-02T09:23:33.586Z,99346.9
2023-05-02T09:24:38.853Z,99348.56
2023-05-02T09:25:44.016Z,99348.98
2023-05-02T09:26:49.233Z,99347.64
2023-05-02T09:27:54.447Z,99345.48
2023-05-02T09:28:59.748Z,99350.84
2023-05-02T09:30:05.142Z,99342.98
2023-05-02T09:31:10.424Z,99344.95
2023-05-02T09:32:16.072Z,99337.11
2023-05-02T09:33:23.324Z,99337.11
2023-05-02T09:34:28.768Z,99342.98
2023-05-02T09:35:33.946Z,99346.08
2023-05-02T09:36:39.142Z,99337.95
2023-05-02T09:37:44.346Z,99345.06
2023-05-02T09:38:49.547Z,99348.68
2023-05-02T09:39:54.744Z,99344.22
2023-05-02T09:40:59.959Z,99345.06
2023-05-02T09:42:05.358Z,99338.97
2023-05-02T09:43:10.550Z,99338.37
2023-05-02T09:44:15.789Z,99344.03
2023-05-02T09:45:20.990Z,99336.5
2023-05-02T09:46:26.387Z,99337.73
2023-05-02T09:47:31.749Z,99336.39
2023-05-02T09:48:36.974Z,99331.67
2023-05-02T09:49:42.212Z,99324.11
2023-05-02T09:50:47.424Z,99331.47
2023-05-02T09:51:52.594Z,99329.47
2023-05-02T09:52:57.817Z,99330.33
2023-05-02T09:54:02.996Z,99330.13
2023-05-02T09:55:08.193Z,99330.73
2023-05-02T09:56:13.384Z,99330.55
2023-05-02T09:57:18.676Z,99331.36
2023-05-02T09:58:23.945Z,99321.57
2023-05-02T09:59:29.136Z,99328.47
2023-05-02T10:00:34.658Z,99329.61
2023-05-02T10:01:40.015Z,99321.98
2023-05-02T10:02:45.390Z,99324.03
2023-05-02T10:03:50.715Z,99324.77
2023-05-02T10:04:56.038Z,99326.41
2023-05-02T10:06:01.265Z,99318.97
2023-05-02T10:07:06.677Z,99319.6
2023-05-02T10:08:11.999Z,99321.38
2023-05-02T10:09:21.761Z,99318.17
2023-05-02T10:10:27.043Z,99315.8
2023-05-02T10:11:32.586Z,99321.38
2023-05-02T10:12:37.815Z,99318.59
2023-05-02T10:13:43.076Z,99319
2023-05-02T10:14:48.304Z,99314.16
2023-05-02T10:15:53.587Z,99314.57
2023-05-02T10:16:58.908Z,99309.4
2023-05-02T10:18:04.209Z,99310.14
2023-05-02T10:19:09.542Z,99304.36
2023-05-02T10:20:14.766Z,99307.34
2023-05-02T10:21:20.419Z,99306.2
2023-05-02T10:22:25.603Z,99306.11
2023-05-02T10:23:30.859Z,99305.52
2023-05-02T10:24:36.075Z,99310.02
2023-05-02T10:25:41.282Z,99310.44
2023-05-02T10:26:46.470Z,99309.09
2023-05-02T10:27:51.664Z,99305.7
2023-05-02T10:28:56.930Z,99303.33
2023-05-02T10:30:02.381Z,99305.19
2023-05-02T10:31:07.942Z,99306.11
2023-05-02T10:32:13.169Z,99306.94
2023-05-02T10:33:18.412Z,99307.75
2023-05-02T10:34:23.596Z,99303.33
2023-05-02T10:35:30.377Z,99305.08
2023-05-02T10:36:35.570Z,99310.66
2023-05-02T10:37:40.782Z,99308.61
2023-05-02T10:38:45.985Z,99315.2
2023-05-02T10:39:51.196Z,99306.63
2023-05-02T10:40:59.521Z,99312.92
2023-05-02T10:42:04.881Z,99309.23
2023-05-02T10:43:10.082Z,99309.02
2023-05-02T10:44:15.297Z,99308.49
2023-05-02T10:45:20.510Z,99314.89
2023-05-02T10:46:25.822Z,99313.25
2023-05-02T10:47:31.350Z,99307.56
2023-05-02T10:48:36.711Z,99309.31
2023-05-02T10:49:41.995Z,99309.31
2023-05-02T10:50:47.542Z,99310.98
2023-05-02T10:51:53.038Z,99307.37
2023-05-02T10:52:58.348Z,99309.31
2023-05-02T10:54:03.548Z,99304.8
2023-05-02T10:55:08.735Z,99312.65
2023-05-02T10:56:14.012Z,99306.14
2023-05-02T10:57:19.194Z,99309.45
2023-05-02T10:58:24.446Z,99311.72
2023-05-02T10:59:29.658Z,99304.17
2023-05-02T11:00:35.211Z,99308.93
2023-05-02T11:01:43.329Z,99310.16
2023-05-02T11:02:48.869Z,99304.91
2023-05-02T11:03:54.489Z,99306.66
2023-05-02T11:05:00.458Z,99302.11
2023-05-02T11:06:06.673Z,99301
2023-05-02T11:07:12.120Z,99300.06
2023-05-02T11:08:21.204Z,99299.25
2023-05-02T11:09:27.493Z,99289.64
2023-05-02T11:10:32.696Z,99290.69
2023-05-02T11:11:38.016Z,99294.59
2023-05-02T11:12:43.244Z,99296.27
2023-05-02T11:13:48.420Z,99299.36
2023-05-02T11:14:53.664Z,99293.66
2023-05-02T11:15:58.956Z,99295.74
2023-05-02T11:17:04.648Z,99295.62
2023-05-02T11:18:10.078Z,99293.8
2023-05-02T11:19:15.410Z,99296.67
2023-05-02T11:20:20.613Z,99296.06
2023-05-02T11:21:25.959Z,99293.8
2023-05-02T11:22:31.188Z,99291.12
2023-05-02T11:23:36.562Z,99295.95
2023-05-02T11:24:41.783Z,99304
2023-05-02T11:25:47.037Z,99302.14
2023-05-02T11:26:52.273Z,99294.62
2023-05-02T11:27:57.478Z,99301.65
2023-05-02T11:29:02.667Z,99303.48
2023-05-02T11:30:07.961Z,99295.33
2023-05-02T11:31:13.395Z,99305.15
2023-05-02T11:32:18.763Z,99303.89
2023-05-02T11:33:24.303Z,99305.56
2023-05-02T11:34:29.556Z,99300.09
2023-05-02T11:35:34.775Z,99303.59
2023-05-02T11:36:39.964Z,99304.22
2023-05-02T11:37:45.200Z,99295.84
2023-05-02T11:38:50.418Z,99302.47
2023-05-02T11:39:55.752Z,99304.62
2023-05-02T11:41:00.977Z,99306.9
2023-05-02T11:42:06.131Z,99305.03
2023-05-02T11:43:11.349Z,99292.67
2023-05-02T11:44:16.640Z,99292.89
2023-05-02T11:45:21.860Z,99287.8
2023-05-02T11:46:27.223Z,99288.95
2023-05-02T11:47:32.532Z,99288.24
2023-05-02T11:48:37.869Z,99294.72
2023-05-02T11:49:43.059Z,99288.24
2023-05-02T11:50:51.658Z,99287.53
2023-05-02T11:51:56.859Z,99291.55
2023-05-02T11:53:02.078Z,99287.94
2023-05-02T11:54:07.280Z,99283.7
2023-05-02T11:55:13.172Z,99285.67
2023-05-02T11:56:18.386Z,99284.63
2023-05-02T11:57:23.582Z,99284.63
2023-05-02T11:58:28.760Z,99282.58
2023-05-02T11:59:34.180Z,99283.59
2023-05-02T12:00:39.332Z,99289.98
2023-05-02T12:01:44.546Z,99292.25
2023-05-02T12:02:49.820Z,99294.94
2023-05-02T12:03:55.248Z,99297.2
2023-05-02T12:05:01.025Z,99300.3
2023-05-02T12:06:06.976Z,99301.56
2023-05-02T12:07:13.729Z,99297.53
2023-05-02T12:08:19.088Z,99297.73
2023-05-02T12:09:24.330Z,99297.32
2023-05-02T12:10:29.525Z,99303.91
2023-05-02T12:11:34.694Z,99306.41
2023-05-02T12:12:39.903Z,99307.85
2023-05-02T12:13:45.076Z,99307.2
2023-05-02T12:14:50.273Z,99309.6
2023-05-02T12:15:55.664Z,99308.05
2023-05-02T12:17:00.983Z,99309.6
2023-05-02T12:18:06.262Z,99310.42
2023-05-02T12:19:11.566Z,99310.2
2023-05-02T12:20:16.878Z,99305.98
2023-05-02T12:21:22.086Z,99308.67
2023-05-02T12:22:27.297Z,99303.72
2023-05-02T12:23:33.156Z,99309.08
2023-05-02T12:24:41.255Z,99310.42
2023-05-02T12:25:46.470Z,99318.58
2023-05-02T12:26:53.183Z,99314.23
2023-05-02T12:27:58.361Z,99317.02
2023-05-02T12:29:03.581Z,99321.14
2023-05-02T12:30:08.981Z,99315.45
2023-05-02T12:31:14.349Z,99321.26
2023-05-02T12:32:19.612Z,99320.63
2023-05-02T12:33:24.839Z,99321.45
2023-05-02T12:34:30.053Z,99322.16
2023-05-02T12:35:35.249Z,99324.34
2023-05-02T12:36:40.542Z,99322.16
2023-05-02T12:37:47.443Z,99323.72
2023-05-02T12:38:52.677Z,99321.34
2023-05-02T12:39:58.632Z,99330.01
2023-05-02T12:41:04.144Z,99332.47
2023-05-02T12:42:09.437Z,99329.71
2023-05-02T12:43:14.627Z,99330.42
2023-05-02T12:44:19.879Z,99330.2
2023-05-02T12:45:25.085Z,99331.05
2023-05-02T12:46:30.314Z,99339.17
2023-05-02T12:47:36.231Z,99341.06
2023-05-02T12:48:41.514Z,99344.34
2023-05-02T12:49:48.150Z,99339.31
2023-05-02T12:50:53.416Z,99333.95